EmailTwitter


Observations de surface / Canada / CYYZ (71624)

Régions: Québec | Canada | États-Unis | Europe | France | UK | Ailleurs
Station
Affichage
Infos & localisation pour CYYZ (71624) | Aide pour décoder les METARs

Observations prises le 2017-08-23 à 17H00 UTC à TORONTO A, ON (CYYZ)

Etat du ciel: partiellement nuageux.

Température: 23.0 Celsius

Point de rosée: 14.0 Celsius

Humidité relative: 57%

Indice Humidex: 26.

Vents: Ouest-sud-ouest à 24 km/h ou 13 noeuds.

Pression au niveau moyen de la mer: 101.04 kilopascals.

Calage altimétrique: 101.02 kilopascals ou 29.83 pouces de mercure.

Visibilité horizontale: 15.00 milles terrestres ou 24.00 kilomètres.

Hauteur du plafond: 2682 mètres ( 8800 pieds ).

Observation METAR:

CYYZ 231700Z 25013KT 15SM SCT051 BKN088 23/14 A2983 RMK CU4AC2 SLP104 DENSITY

ALT 1800FT=